createdAt,value
2018-10-21T00:01:38.500Z,94.08
2018-10-21T00:06:32.980Z,92.91
2018-10-21T00:11:27.404Z,92.91
2018-10-21T00:16:21.844Z,95.07
2018-10-21T00:21:16.363Z,96.33
2018-10-21T00:26:10.692Z,97.63
2018-10-21T00:31:05.235Z,98.00
2018-10-21T00:35:59.660Z,97.48
2018-10-21T00:40:54.079Z,98.04
2018-10-21T00:45:48.484Z,96.86
2018-10-21T00:50:42.877Z,97.42
2018-10-21T00:55:37.260Z,97.57
2018-10-21T01:00:31.709Z,97.69
2018-10-21T01:05:26.150Z,97.38
2018-10-21T01:10:20.604Z,96.68
2018-10-21T01:15:15.124Z,96.76
2018-10-21T01:20:12.024Z,96.89
2018-10-21T01:25:07.559Z,96.85
2018-10-21T01:30:01.994Z,96.70
2018-10-21T01:34:56.392Z,96.25
2018-10-21T01:40:55.072Z,95.87
2018-10-21T01:45:49.552Z,96.00
2018-10-21T01:50:43.984Z,95.98
2018-10-21T01:55:38.409Z,96.73
2018-10-21T02:00:33.396Z,96.22
2018-10-21T02:05:28.197Z,95.91
2018-10-21T02:10:22.690Z,95.38
2018-10-21T02:15:17.126Z,95.13
2018-10-21T02:20:12.876Z,95.19
2018-10-21T02:25:07.628Z,95.24
2018-10-21T02:30:02.102Z,95.03
2018-10-21T02:34:56.541Z,95.70
2018-10-21T02:39:50.968Z,96.55
2018-10-21T02:44:45.362Z,97.14
2018-10-21T02:49:39.808Z,97.53
2018-10-21T02:54:34.653Z,97.62
2018-10-21T02:59:29.101Z,97.80
2018-10-21T03:04:24.096Z,97.88
2018-10-21T03:09:18.597Z,97.90
2018-10-21T03:14:13.059Z,98.21
2018-10-21T03:19:07.569Z,98.67
2018-10-21T03:24:01.989Z,98.44
2018-10-21T03:28:56.404Z,99.11
2018-10-21T03:33:50.901Z,99.61
2018-10-21T03:38:45.290Z,99.27
2018-10-21T03:43:39.684Z,99.65
2018-10-21T03:48:34.192Z,99.59
2018-10-21T03:53:28.577Z,99.67
2018-10-21T03:58:23.044Z,99.79
2018-10-21T04:03:17.480Z,99.67
2018-10-21T04:08:11.928Z,99.36
2018-10-21T04:13:06.529Z,98.95
2018-10-21T04:18:00.964Z,98.95
2018-10-21T04:22:56.469Z,98.65
2018-10-21T04:27:51.897Z,98.43
2018-10-21T04:32:47.538Z,97.80
2018-10-21T04:40:01.217Z,97.31
2018-10-21T04:44:55.617Z,96.66
2018-10-21T04:49:50.026Z,96.13
2018-10-21T04:54:44.432Z,96.37
2018-10-21T04:59:39.740Z,96.89
2018-10-21T05:04:34.217Z,96.56
2018-10-21T05:09:28.705Z,96.14
2018-10-21T05:14:23.472Z,94.67
2018-10-21T05:19:17.906Z,94.41
2018-10-21T05:24:12.326Z,95.22
2018-10-21T05:29:06.836Z,96.12
2018-10-21T05:34:01.294Z,96.65
2018-10-21T05:38:55.716Z,94.75
2018-10-21T05:43:50.172Z,94.69
2018-10-21T05:48:44.605Z,94.29
2018-10-21T05:53:39.004Z,93.90
2018-10-21T05:58:33.404Z,94.20
2018-10-21T06:03:27.804Z,94.80
2018-10-21T06:08:22.272Z,94.28
2018-10-21T06:13:16.683Z,94.50
2018-10-21T06:18:16.549Z,94.49
2018-10-21T06:23:11.040Z,95.43
2018-10-21T06:28:06.007Z,96.19
2018-10-21T06:33:00.443Z,96.06
2018-10-21T06:37:54.931Z,95.48
2018-10-21T06:42:49.359Z,96.18
2018-10-21T06:47:43.837Z,96.28
2018-10-21T06:52:38.412Z,96.93
2018-10-21T06:57:33.063Z,95.85
2018-10-21T07:02:27.384Z,96.24
2018-10-21T07:07:21.801Z,95.90
2018-10-21T07:12:16.232Z,94.43
2018-10-21T07:17:10.648Z,93.62
2018-10-21T07:22:05.368Z,92.72
2018-10-21T07:26:59.728Z,92.95
2018-10-21T07:31:54.153Z,93.09
2018-10-21T07:36:48.598Z,91.76
2018-10-21T07:41:43.020Z,90.80
2018-10-21T07:46:37.452Z,90.11
2018-10-21T07:51:31.856Z,87.50
2018-10-21T07:56:26.276Z,87.15
2018-10-21T08:01:20.907Z,87.26
2018-10-21T08:06:34.205Z,86.33
2018-10-21T08:11:28.800Z,84.75
2018-10-21T08:16:23.455Z,82.53
2018-10-21T08:21:17.913Z,82.06
2018-10-21T08:26:12.328Z,83.40
2018-10-21T08:31:06.776Z,82.55
2018-10-21T08:36:01.216Z,81.30
2018-10-21T08:40:55.693Z,80.71
2018-10-21T08:45:50.139Z,80.38
2018-10-21T08:50:44.540Z,80.38
2018-10-21T08:55:39.045Z,78.89
2018-10-21T09:00:33.410Z,77.61
2018-10-21T09:05:27.929Z,77.59
2018-10-21T09:10:22.556Z,76.50
2018-10-21T09:15:18.221Z,76.83
2018-10-21T09:20:14.969Z,75.18
2018-10-21T09:25:10.250Z,73.11
2018-10-21T09:30:04.936Z,73.74
2018-10-21T09:34:59.377Z,72.66
2018-10-21T09:39:53.817Z,73.30
2018-10-21T09:44:48.244Z,72.23
2018-10-21T09:49:42.709Z,71.21
2018-10-21T09:54:37.156Z,70.80
2018-10-21T09:59:31.571Z,71.40
2018-10-21T10:04:26.128Z,68.92
2018-10-21T10:09:20.444Z,68.10
2018-10-21T10:14:14.883Z,67.03
2018-10-21T10:19:09.407Z,66.97
2018-10-21T10:24:04.000Z,68.46
2018-10-21T10:28:58.385Z,67.48
2018-10-21T10:33:52.828Z,66.36
2018-10-21T10:38:47.249Z,67.17
2018-10-21T10:43:41.693Z,65.04
2018-10-21T10:48:36.143Z,59.79
2018-10-21T10:53:30.573Z,59.87
2018-10-21T10:58:24.996Z,58.20
2018-10-21T11:03:19.493Z,56.58
2018-10-21T11:08:13.995Z,58.42
2018-10-21T11:13:09.027Z,57.35
2018-10-21T11:18:04.106Z,57.54
2018-10-21T11:22:58.689Z,57.23
2018-10-21T11:27:53.216Z,56.91
2018-10-21T11:32:47.905Z,56.92
2018-10-21T11:37:45.171Z,56.65
2018-10-21T11:42:39.799Z,56.78
2018-10-21T11:47:34.286Z,56.97
2018-10-21T11:52:28.810Z,56.59
2018-10-21T11:57:23.713Z,56.73
2018-10-21T12:02:18.277Z,55.93
2018-10-21T12:07:12.813Z,56.64
2018-10-21T12:12:07.224Z,56.51
2018-10-21T12:17:01.718Z,55.84
2018-10-21T12:21:56.208Z,55.94
2018-10-21T12:26:50.724Z,56.03
2018-10-21T12:31:45.156Z,56.72
2018-10-21T12:36:39.712Z,56.96
2018-10-21T12:41:34.228Z,55.58
2018-10-21T12:46:29.568Z,54.37
2018-10-21T12:51:24.091Z,53.53
2018-10-21T12:56:18.504Z,52.09
2018-10-21T13:01:13.108Z,51.17
2018-10-21T13:06:07.480Z,51.45
2018-10-21T13:11:02.035Z,51.89
2018-10-21T13:15:56.583Z,53.81
2018-10-21T13:20:51.106Z,53.76
2018-10-21T13:25:45.533Z,53.21
2018-10-21T13:30:39.996Z,52.76
2018-10-21T13:35:34.420Z,52.15
2018-10-21T13:40:28.892Z,53.44
2018-10-21T13:45:23.383Z,52.99
2018-10-21T13:50:17.862Z,52.67
2018-10-21T13:55:12.866Z,52.16
2018-10-21T14:00:08.664Z,53.44
2018-10-21T14:05:03.156Z,51.81
2018-10-21T14:09:57.663Z,50.89
2018-10-21T14:14:52.146Z,51.65
2018-10-21T14:19:46.596Z,50.52
2018-10-21T14:24:41.192Z,51.17
2018-10-21T14:29:35.711Z,51.03
2018-10-21T14:34:30.173Z,51.89
2018-10-21T14:39:24.690Z,51.98
2018-10-21T14:44:19.220Z,50.63
2018-10-21T14:49:13.648Z,49.86
2018-10-21T14:54:08.340Z,50.64
2018-10-21T14:59:02.705Z,51.72
2018-10-21T15:03:57.235Z,50.46
2018-10-21T15:08:51.674Z,50.00
2018-10-21T15:13:46.160Z,50.09
2018-10-21T15:18:40.632Z,50.04
2018-10-21T15:23:35.195Z,50.26
2018-10-21T15:28:29.605Z,50.24
2018-10-21T15:33:24.038Z,50.93
2018-10-21T15:38:18.733Z,50.99
2018-10-21T15:43:13.176Z,51.25
2018-10-21T15:48:07.673Z,51.83
2018-10-21T15:53:02.116Z,51.84
2018-10-21T15:57:56.620Z,51.91
2018-10-21T16:02:51.129Z,51.26
2018-10-21T16:07:45.583Z,51.48
2018-10-21T16:12:40.238Z,51.83
2018-10-21T16:17:34.796Z,51.90
2018-10-21T16:22:29.268Z,52.34
2018-10-21T16:27:23.767Z,51.92
2018-10-21T16:32:18.333Z,53.82
2018-10-21T16:37:12.795Z,53.36
2018-10-21T16:42:07.221Z,53.60
2018-10-21T16:47:01.711Z,54.39
2018-10-21T16:51:56.188Z,54.94
2018-10-21T16:56:50.612Z,55.48
2018-10-21T17:01:45.044Z,55.89
2018-10-21T17:06:39.542Z,55.93
2018-10-21T17:11:34.182Z,56.22
2018-10-21T17:16:28.636Z,56.93
2018-10-21T17:21:23.100Z,57.78
2018-10-21T17:26:17.581Z,57.71
2018-10-21T17:31:12.096Z,58.21
2018-10-21T17:36:06.828Z,58.63
2018-10-21T17:41:01.316Z,58.37
2018-10-21T17:45:55.851Z,58.43
2018-10-21T17:50:50.248Z,58.26
2018-10-21T17:55:44.741Z,58.24
2018-10-21T18:00:39.804Z,58.58
2018-10-21T18:05:34.325Z,58.93
2018-10-21T18:10:28.788Z,59.35
2018-10-21T18:15:23.340Z,58.79
2018-10-21T18:20:17.822Z,58.77
2018-10-21T18:25:12.400Z,58.30
2018-10-21T18:30:08.710Z,59.37
2018-10-21T18:35:03.206Z,58.84
2018-10-21T18:39:57.707Z,58.25
2018-10-21T18:44:52.565Z,58.19
2018-10-21T18:49:47.054Z,58.17
2018-10-21T18:54:41.487Z,58.73
2018-10-21T18:59:35.985Z,57.97
2018-10-21T19:04:30.497Z,58.55
2018-10-21T19:09:25.048Z,58.77
2018-10-21T19:14:19.634Z,58.74
2018-10-21T19:19:14.197Z,59.44
2018-10-21T19:24:08.696Z,58.84
2018-10-21T19:29:03.240Z,60.18
2018-10-21T19:33:57.833Z,60.83
2018-10-21T19:38:52.274Z,60.77
2018-10-21T19:43:46.758Z,60.97
2018-10-21T19:48:41.196Z,60.87
2018-10-21T19:53:36.329Z,60.92
2018-10-21T19:58:30.831Z,61.18
2018-10-21T20:03:25.333Z,61.17
2018-10-21T20:08:19.988Z,62.03
2018-10-21T20:13:14.574Z,62.64
2018-10-21T20:18:09.024Z,61.93
2018-10-21T20:23:03.504Z,61.33
2018-10-21T20:27:58.042Z,61.29
2018-10-21T20:32:52.627Z,60.85
2018-10-21T20:37:47.092Z,61.23
2018-10-21T20:42:41.530Z,59.63
2018-10-21T20:47:35.947Z,59.92
2018-10-21T20:52:30.526Z,59.67
2018-10-21T20:57:25.493Z,59.67
2018-10-21T21:02:19.975Z,59.00
2018-10-21T21:07:14.436Z,59.43
2018-10-21T21:12:08.969Z,58.96
2018-10-21T21:17:03.967Z,59.45
2018-10-21T21:21:58.375Z,59.34
2018-10-21T21:26:52.855Z,59.69
2018-10-21T21:31:47.468Z,60.29
2018-10-21T21:36:41.935Z,59.87
2018-10-21T21:41:36.420Z,60.37
2018-10-21T21:46:30.896Z,60.54
2018-10-21T21:51:25.308Z,60.73
2018-10-21T21:56:20.505Z,61.20
2018-10-21T22:01:15.040Z,60.82
2018-10-21T22:06:09.510Z,61.30
2018-10-21T22:11:03.892Z,62.42
2018-10-21T22:15:58.390Z,62.68
2018-10-21T22:20:52.736Z,63.49
2018-10-21T22:25:47.167Z,63.87
2018-10-21T22:30:41.563Z,64.61
2018-10-21T22:35:35.964Z,64.40
2018-10-21T22:40:30.471Z,64.64
2018-10-21T22:45:24.900Z,64.47
2018-10-21T22:50:19.299Z,65.62
2018-10-21T22:55:13.716Z,65.79
2018-10-21T23:00:09.881Z,66.09
2018-10-21T23:05:04.659Z,66.23
2018-10-21T23:09:59.135Z,66.78
2018-10-21T23:14:53.479Z,67.35
2018-10-21T23:19:49.893Z,67.36
2018-10-21T23:24:44.308Z,67.73
2018-10-21T23:29:38.723Z,68.32
2018-10-21T23:34:33.149Z,68.60
2018-10-21T23:39:28.272Z,69.94
2018-10-21T23:44:22.678Z,71.53
2018-10-21T23:49:17.126Z,72.96
2018-10-21T23:54:11.600Z,74.18
2018-10-21T23:59:06.856Z,75.57
